John Quigg — WDB9828 — position and weather

sailwx.info

Track history (hours):
 
Tides and Currents Weather Stations Pressure Air Temp Water Temp Dewpoint Dewpoint Depression Visibility Wind Speed Wind Dir Waves Ship Positions

John Quigg

Owner: Harley Marine Services, Inc, Seattle, WA. More information available from US FCC via Universal Licensing System and Coast Guard Vessel Documentation Center.

Last reported at 2015-Mar-30 10:33 UTC. Time now 2015-Mar-30 10:45 UTC.
Position N 33°46' W 118°17'.

MMSI: 365934954.

Date/timePositionNaut miles runAvg speedWind from/ knotsBaromVisibWave heightAir tempDewpointWater temp
2015-Mar-30 10:33N 33°46' W 118°17'1 0.5
2015-Mar-30 09:32N 33°45' W 118°16'1 0.7
2015-Mar-30 07:33N 33°44' W 118°16'0 0.1
2015-Mar-30 06:33N 33°44' W 118°16'0 0.1
2015-Mar-30 05:33N 33°44' W 118°16'3 3.4
2015-Mar-30 04:33N 33°46' W 118°13'1 0.6
2015-Mar-30 03:34N 33°46' W 118°13'3 3.1
2015-Mar-30 02:33N 33°43' W 118°11'4 4.0
2015-Mar-30 01:34N 33°44' W 118°16'0 0.0
2015-Mar-30 00:33N 33°44' W 118°16'0 0.0
2015-Mar-29 23:33N 33°44' W 118°16'0 0.0
2015-Mar-29 22:33N 33°44' W 118°16'2 1.7
2015-Mar-29 21:34N 33°43' W 118°14'1 1.5
2015-Mar-29 20:33N 33°44' W 118°13'3 2.6
2015-Mar-29 19:23N 33°43' W 118°17'1 0.9
2015-Mar-29 18:29N 33°44' W 118°16'0 0.0
2015-Mar-29 17:34N 33°44' W 118°16'2 1.4
2015-Mar-29 16:09N 33°44' W 118°13'1 0.6
2015-Mar-29 14:18N 33°45' W 118°12'1 1.2
2015-Mar-29 13:06N 33°44' W 118°11'0 0.2
2015-Mar-29 11:15N 33°44' W 118°11'0 0.7
2015-Mar-29 10:33N 33°44' W 118°11'4 3.6
2015-Mar-29 09:28N 33°43' W 118°16'1 1.0
2015-Mar-29 08:33N 33°44' W 118°16'2 1.3
2015-Mar-29 07:14N 33°45' W 118°17'1 1.0
2015-Mar-29 06:33N 33°45' W 118°16'3 2.8
2015-Mar-29 05:33N 33°44' W 118°13'2 2.2
2015-Mar-29 04:33N 33°44' W 118°16'4 3.6
2015-Mar-29 03:33N 33°47' W 118°13'4 3.8
2015-Mar-29 02:33N 33°44' W 118°16'2 2.4
2015-Mar-29 01:33N 33°44' W 118°13'2 1.5
2015-Mar-29 00:33N 33°44' W 118°11'0 0.5
2015-Mar-28 23:33N 33°44' W 118°11'3 3.1
2015-Mar-28 22:34N 33°45' W 118°14'0 0.3
2015-Mar-28 21:33N 33°45' W 118°15'2 1.7
2015-Mar-28 20:33N 33°45' W 118°17'1 1.1
2015-Mar-28 19:33N 33°44' W 118°16'2 1.5
2015-Mar-28 18:33N 33°43' W 118°14'2 1.8
2015-Mar-28 17:31N 33°44' W 118°12'1 0.9
2015-Mar-28 16:32N 33°45' W 118°13'0 0.0
2015-Mar-28 15:33N 33°45' W 118°13'0 0.0
2015-Mar-28 14:33N 33°45' W 118°13'3 1.7
2015-Mar-28 12:33N 33°43' W 118°17'4 3.7
2015-Mar-28 11:33N 33°46' W 118°13'0 0.0
2015-Mar-28 10:33N 33°46' W 118°13'5 5.0
2015-Mar-28 09:33N 33°42' W 118°11'5 5.1
2015-Mar-28 08:33N 33°43' W 118°17'0 0.5
2015-Mar-28 07:33N 33°43' W 118°16'1 0.6
2015-Mar-28 06:33N 33°44' W 118°16'0 0.0
2015-Mar-28 05:33N 33°44' W 118°16'0 0.0
2015-Mar-28 04:33N 33°44' W 118°16'0 0.0
2015-Mar-28 03:34N 33°44' W 118°16'2 1.6
2015-Mar-28 02:33N 33°45' W 118°16'1 0.9
2015-Mar-28 01:34N 33°44' W 118°17'1 1.2
2015-Mar-28 00:34N 33°43' W 118°16'1 1.1
2015-Mar-27 23:34N 33°43' W 118°15'2 2.3
2015-Mar-27 22:33N 33°44' W 118°13'3 2.6
2015-Mar-27 21:27N 33°43' W 118°15'2 2.4
2015-Mar-27 20:32N 33°45' W 118°17'0 0.3
2015-Mar-27 19:28N 33°45' W 118°17'1 1.1
2015-Mar-27 18:32N 33°44' W 118°16'0 0.1
2015-Mar-27 17:33N 33°44' W 118°16'6 5.7
2015-Mar-27 16:33N 33°44' W 118°09'2 2.1
2015-Mar-27 15:31N 33°44' W 118°06'2 1.8
2015-Mar-27 14:12N 33°44' W 118°09'5 5.9
2015-Mar-27 13:17N 33°44' W 118°16'2 2.7
2015-Mar-27 12:33N 33°46' W 118°15'2 1.6
2015-Mar-27 11:33N 33°46' W 118°13'3 2.6
2015-Mar-27 10:33N 33°44' W 118°12'0 0.0
2015-Mar-27 09:34N 33°44' W 118°12'0 0.1
2015-Mar-27 08:33N 33°44' W 118°12'3 2.0
2015-Mar-27 07:07N 33°44' W 118°16'0 0.0
2015-Mar-27 03:28N 33°44' W 118°16'0 0.0
2015-Mar-27 02:33N 33°44' W 118°16'2 1.6
2015-Mar-27 01:33N 33°45' W 118°17'3 2.7
2015-Mar-27 00:24N 33°43' W 118°14'1 0.7
2015-Mar-26 23:33N 33°43' W 118°13'3 1.4
2015-Mar-26 21:23N 33°45' W 118°16'0 0.0
2015-Mar-26 20:29N 33°45' W 118°16'2 0.8
2015-Mar-26 18:30N 33°44' W 118°16'0 0.1
2015-Mar-26 17:23N 33°44' W 118°16'0 0.0
2015-Mar-26 16:34N 33°44' W 118°16'1 0.7
2015-Mar-26 15:33N 33°43' W 118°16'2 1.7
2015-Mar-26 14:11N 33°45' W 118°17'1 1.3
2015-Mar-26 13:33N 33°45' W 118°17'1 0.8
2015-Mar-26 12:33N 33°45' W 118°17'0 0.0
2015-Mar-26 11:26N 33°45' W 118°17'0 0.0
2015-Mar-26 10:28N 33°45' W 118°17'0 0.4
2015-Mar-26 09:33N 33°46' W 118°17'0 0.0
2015-Mar-26 08:32N 33°46' W 118°17'2 2.1
2015-Mar-26 07:33N 33°44' W 118°15'2 1.7
2015-Mar-26 06:29N 33°46' W 118°15'2 1.0
2015-Mar-26 04:33N 33°45' W 118°13'1 0.8
2015-Mar-26 03:33N 33°46' W 118°13'3 3.0
2015-Mar-26 02:25N 33°43' W 118°15'1 1.6
2015-Mar-26 01:34N 33°44' W 118°16'0 0.0
2015-Mar-26 00:33N 33°44' W 118°16'0 0.0
2015-Mar-25 23:33N 33°44' W 118°16'2 1.6
2015-Mar-25 22:31N 33°46' W 118°16'3 3.0
2015-Mar-25 21:33N 33°43' W 118°14'3 3.2
2015-Mar-25 20:33N 33°46' W 118°13'0 0.5
2015-Mar-25 19:33N 33°46' W 118°13'3 1.6
2015-Mar-25 17:23N 33°44' W 118°16'0 0.0
2015-Mar-25 16:23N 33°44' W 118°16'0 0.0
2015-Mar-25 14:32N 33°44' W 118°16'0 0.0
2015-Mar-25 13:33N 33°44' W 118°16'2 1.9
2015-Mar-25 12:31N 33°46' W 118°17'3 3.2
2015-Mar-25 11:32N 33°43' W 118°15'0 0.2
2015-Mar-25 10:20N 33°43' W 118°15'1 0.6
2015-Mar-25 09:06N 33°43' W 118°16'3 4.7
2015-Mar-25 08:31N 33°46' W 118°15'2 2.3
2015-Mar-25 07:26N 33°43' W 118°16'1 0.5
2015-Mar-25 06:09N 33°44' W 118°16'0 0.0
2015-Mar-25 05:32N 33°44' W 118°16'0 0.0
2015-Mar-25 04:33N 33°44' W 118°16'1 1.1
2015-Mar-25 03:23N 33°43' W 118°15'1 0.8
2015-Mar-25 02:07N 33°43' W 118°16'2 3.6
2015-Mar-25 01:33N 33°45' W 118°16'0 0.2
2015-Mar-24 23:22N 33°45' W 118°16'0 0.0
2015-Mar-24 20:14N 33°45' W 118°16'2 0.1
2015-Mar-24 03:27N 33°45' W 118°14'2 0.9
2015-Mar-24 01:23N 33°44' W 118°13'2 0.9
2015-Mar-23 23:10N 33°44' W 118°16'2 0.6
2015-Mar-23 19:24N 33°44' W 118°13'1 0.3
2015-Mar-23 15:07N 33°45' W 118°12'1 0.7
2015-Mar-23 14:06N 33°45' W 118°13'1 0.9
2015-Mar-23 13:29N 33°46' W 118°13'0 0.4
2015-Mar-23 12:21N 33°46' W 118°13'3 2.4
2015-Mar-23 11:05N 33°43' W 118°12'2 0.1
2015-Mar-22 23:24N 33°45' W 118°12'1 0.2
2015-Mar-22 19:31N 33°44' W 118°13'2 0.7
2015-Mar-22 16:31N 33°46' W 118°13'1 0.5
2015-Mar-22 14:20N 33°45' W 118°13'1 1.3
2015-Mar-22 13:30N 33°46' W 118°13'0 0.4
2015-Mar-22 12:34N 33°46' W 118°13'2 1.6
2015-Mar-22 11:17N 33°45' W 118°16'0 0.1
2015-Mar-22 07:19N 33°46' W 118°15'3 0.4
2015-Mar-21 23:17N 33°44' W 118°12'1 0.1
2015-Mar-21 09:21N 33°44' W 118°13'1 0.2
2015-Mar-21 02:25N 33°45' W 118°13'0 0.1
2015-Mar-21 01:33N 33°45' W 118°13'1 0.9
2015-Mar-21 00:09N 33°44' W 118°12'0 0.8
2015-Mar-20 23:32N 33°44' W 118°13'2 1.2
2015-Mar-20 21:33N 33°44' W 118°16'0 0.0
2015-Mar-20 20:33N 33°44' W 118°16'2 0.4
2015-Mar-20 15:26N 33°46' W 118°16'  
Track history (hours):
 
Tides and Currents Weather Stations Pressure Air Temp Water Temp Dewpoint Dewpoint Depression Visibility Wind Speed Wind Dir Waves Ship Positions

John Quigg

Owner: Harley Marine Services, Inc, Seattle, WA. More information available from US FCC via Universal Licensing System and Coast Guard Vessel Documentation Center.

Last reported at 2015-Mar-30 10:33 UTC. Time now 2015-Mar-30 10:45 UTC.
Position N 33°46' W 118°17'.

MMSI: 365934954.

Date/timePositionNaut miles runAvg speedWind from/ knotsBaromVisibWave heightAir tempDewpointWater temp
2015-Mar-30 10:33N 33°46' W 118°17'1 0.5
2015-Mar-30 09:32N 33°45' W 118°16'1 0.7
2015-Mar-30 07:33N 33°44' W 118°16'0 0.1
2015-Mar-30 06:33N 33°44' W 118°16'0 0.1
2015-Mar-30 05:33N 33°44' W 118°16'3 3.4
2015-Mar-30 04:33N 33°46' W 118°13'1 0.6
2015-Mar-30 03:34N 33°46' W 118°13'3 3.1
2015-Mar-30 02:33N 33°43' W 118°11'4 4.0
2015-Mar-30 01:34N 33°44' W 118°16'0 0.0
2015-Mar-30 00:33N 33°44' W 118°16'0 0.0
2015-Mar-29 23:33N 33°44' W 118°16'0 0.0
2015-Mar-29 22:33N 33°44' W 118°16'2 1.7
2015-Mar-29 21:34N 33°43' W 118°14'1 1.5
2015-Mar-29 20:33N 33°44' W 118°13'3 2.6
2015-Mar-29 19:23N 33°43' W 118°17'1 0.9
2015-Mar-29 18:29N 33°44' W 118°16'0 0.0
2015-Mar-29 17:34N 33°44' W 118°16'2 1.4
2015-Mar-29 16:09N 33°44' W 118°13'1 0.6
2015-Mar-29 14:18N 33°45' W 118°12'1 1.2
2015-Mar-29 13:06N 33°44' W 118°11'0 0.2
2015-Mar-29 11:15N 33°44' W 118°11'0 0.7
2015-Mar-29 10:33N 33°44' W 118°11'4 3.6
2015-Mar-29 09:28N 33°43' W 118°16'1 1.0
2015-Mar-29 08:33N 33°44' W 118°16'2 1.3
2015-Mar-29 07:14N 33°45' W 118°17'1 1.0
2015-Mar-29 06:33N 33°45' W 118°16'3 2.8
2015-Mar-29 05:33N 33°44' W 118°13'2 2.2
2015-Mar-29 04:33N 33°44' W 118°16'4 3.6
2015-Mar-29 03:33N 33°47' W 118°13'4 3.8
2015-Mar-29 02:33N 33°44' W 118°16'2 2.4
2015-Mar-29 01:33N 33°44' W 118°13'2 1.5
2015-Mar-29 00:33N 33°44' W 118°11'0 0.5
2015-Mar-28 23:33N 33°44' W 118°11'3 3.1
2015-Mar-28 22:34N 33°45' W 118°14'0 0.3
2015-Mar-28 21:33N 33°45' W 118°15'2 1.7
2015-Mar-28 20:33N 33°45' W 118°17'1 1.1
2015-Mar-28 19:33N 33°44' W 118°16'2 1.5
2015-Mar-28 18:33N 33°43' W 118°14'2 1.8
2015-Mar-28 17:31N 33°44' W 118°12'1 0.9
2015-Mar-28 16:32N 33°45' W 118°13'0 0.0
2015-Mar-28 15:33N 33°45' W 118°13'0 0.0
2015-Mar-28 14:33N 33°45' W 118°13'3 1.7
2015-Mar-28 12:33N 33°43' W 118°17'4 3.7
2015-Mar-28 11:33N 33°46' W 118°13'0 0.0
2015-Mar-28 10:33N 33°46' W 118°13'5 5.0
2015-Mar-28 09:33N 33°42' W 118°11'5 5.1
2015-Mar-28 08:33N 33°43' W 118°17'0 0.5
2015-Mar-28 07:33N 33°43' W 118°16'1 0.6
2015-Mar-28 06:33N 33°44' W 118°16'0 0.0
2015-Mar-28 05:33N 33°44' W 118°16'0 0.0
2015-Mar-28 04:33N 33°44' W 118°16'0 0.0
2015-Mar-28 03:34N 33°44' W 118°16'2 1.6
2015-Mar-28 02:33N 33°45' W 118°16'1 0.9
2015-Mar-28 01:34N 33°44' W 118°17'1 1.2
2015-Mar-28 00:34N 33°43' W 118°16'1 1.1
2015-Mar-27 23:34N 33°43' W 118°15'2 2.3
2015-Mar-27 22:33N 33°44' W 118°13'3 2.6
2015-Mar-27 21:27N 33°43' W 118°15'2 2.4
2015-Mar-27 20:32N 33°45' W 118°17'0 0.3
2015-Mar-27 19:28N 33°45' W 118°17'1 1.1
2015-Mar-27 18:32N 33°44' W 118°16'0 0.1
2015-Mar-27 17:33N 33°44' W 118°16'6 5.7
2015-Mar-27 16:33N 33°44' W 118°09'2 2.1
2015-Mar-27 15:31N 33°44' W 118°06'2 1.8
2015-Mar-27 14:12N 33°44' W 118°09'5 5.9
2015-Mar-27 13:17N 33°44' W 118°16'2 2.7
2015-Mar-27 12:33N 33°46' W 118°15'2 1.6
2015-Mar-27 11:33N 33°46' W 118°13'3 2.6
2015-Mar-27 10:33N 33°44' W 118°12'0 0.0
2015-Mar-27 09:34N 33°44' W 118°12'0 0.1
2015-Mar-27 08:33N 33°44' W 118°12'3 2.0
2015-Mar-27 07:07N 33°44' W 118°16'0 0.0
2015-Mar-27 03:28N 33°44' W 118°16'0 0.0
2015-Mar-27 02:33N 33°44' W 118°16'2 1.6
2015-Mar-27 01:33N 33°45' W 118°17'3 2.7
2015-Mar-27 00:24N 33°43' W 118°14'1 0.7
2015-Mar-26 23:33N 33°43' W 118°13'3 1.4
2015-Mar-26 21:23N 33°45' W 118°16'0 0.0
2015-Mar-26 20:29N 33°45' W 118°16'2 0.8
2015-Mar-26 18:30N 33°44' W 118°16'0 0.1
2015-Mar-26 17:23N 33°44' W 118°16'0 0.0
2015-Mar-26 16:34N 33°44' W 118°16'1 0.7
2015-Mar-26 15:33N 33°43' W 118°16'2 1.7
2015-Mar-26 14:11N 33°45' W 118°17'1 1.3
2015-Mar-26 13:33N 33°45' W 118°17'1 0.8
2015-Mar-26 12:33N 33°45' W 118°17'0 0.0
2015-Mar-26 11:26N 33°45' W 118°17'0 0.0
2015-Mar-26 10:28N 33°45' W 118°17'0 0.4
2015-Mar-26 09:33N 33°46' W 118°17'0 0.0
2015-Mar-26 08:32N 33°46' W 118°17'2 2.1
2015-Mar-26 07:33N 33°44' W 118°15'2 1.7
2015-Mar-26 06:29N 33°46' W 118°15'2 1.0
2015-Mar-26 04:33N 33°45' W 118°13'1 0.8
2015-Mar-26 03:33N 33°46' W 118°13'3 3.0
2015-Mar-26 02:25N 33°43' W 118°15'1 1.6
2015-Mar-26 01:34N 33°44' W 118°16'0 0.0
2015-Mar-26 00:33N 33°44' W 118°16'0 0.0
2015-Mar-25 23:33N 33°44' W 118°16'2 1.6
2015-Mar-25 22:31N 33°46' W 118°16'3 3.0
2015-Mar-25 21:33N 33°43' W 118°14'3 3.2
2015-Mar-25 20:33N 33°46' W 118°13'0 0.5
2015-Mar-25 19:33N 33°46' W 118°13'3 1.6
2015-Mar-25 17:23N 33°44' W 118°16'0 0.0
2015-Mar-25 16:23N 33°44' W 118°16'0 0.0
2015-Mar-25 14:32N 33°44' W 118°16'0 0.0
2015-Mar-25 13:33N 33°44' W 118°16'2 1.9
2015-Mar-25 12:31N 33°46' W 118°17'3 3.2
2015-Mar-25 11:32N 33°43' W 118°15'0 0.2
2015-Mar-25 10:20N 33°43' W 118°15'1 0.6
2015-Mar-25 09:06N 33°43' W 118°16'3 4.7
2015-Mar-25 08:31N 33°46' W 118°15'2 2.3
2015-Mar-25 07:26N 33°43' W 118°16'1 0.5
2015-Mar-25 06:09N 33°44' W 118°16'0 0.0
2015-Mar-25 05:32N 33°44' W 118°16'0 0.0
2015-Mar-25 04:33N 33°44' W 118°16'1 1.1
2015-Mar-25 03:23N 33°43' W 118°15'1 0.8
2015-Mar-25 02:07N 33°43' W 118°16'2 3.6
2015-Mar-25 01:33N 33°45' W 118°16'0 0.2
2015-Mar-24 23:22N 33°45' W 118°16'0 0.0
2015-Mar-24 20:14N 33°45' W 118°16'2 0.1
2015-Mar-24 03:27N 33°45' W 118°14'2 0.9
2015-Mar-24 01:23N 33°44' W 118°13'2 0.9
2015-Mar-23 23:10N 33°44' W 118°16'2 0.6
2015-Mar-23 19:24N 33°44' W 118°13'1 0.3
2015-Mar-23 15:07N 33°45' W 118°12'1 0.7
2015-Mar-23 14:06N 33°45' W 118°13'1 0.9
2015-Mar-23 13:29N 33°46' W 118°13'0 0.4
2015-Mar-23 12:21N 33°46' W 118°13'3 2.4
2015-Mar-23 11:05N 33°43' W 118°12'2 0.1
2015-Mar-22 23:24N 33°45' W 118°12'1 0.2
2015-Mar-22 19:31N 33°44' W 118°13'2 0.7
2015-Mar-22 16:31N 33°46' W 118°13'1 0.5
2015-Mar-22 14:20N 33°45' W 118°13'1 1.3
2015-Mar-22 13:30N 33°46' W 118°13'0 0.4
2015-Mar-22 12:34N 33°46' W 118°13'2 1.6
2015-Mar-22 11:17N 33°45' W 118°16'0 0.1
2015-Mar-22 07:19N 33°46' W 118°15'3 0.4
2015-Mar-21 23:17N 33°44' W 118°12'1 0.1
2015-Mar-21 09:21N 33°44' W 118°13'1 0.2
2015-Mar-21 02:25N 33°45' W 118°13'0 0.1
2015-Mar-21 01:33N 33°45' W 118°13'1 0.9
2015-Mar-21 00:09N 33°44' W 118°12'0 0.8
2015-Mar-20 23:32N 33°44' W 118°13'2 1.2
2015-Mar-20 21:33N 33°44' W 118°16'0 0.0
2015-Mar-20 20:33N 33°44' W 118°16'2 0.4
2015-Mar-20 15:26N 33°46' W 118°16'  

Dump ship's entire track history